createdAt,value
2018-05-29T08:26:14.994Z,11.95
2018-05-29T08:29:36.649Z,10.52
2018-05-29T08:32:04.173Z,10.43
2018-05-29T08:34:31.665Z,9.57
2018-05-29T08:36:59.194Z,10.70
2018-05-29T08:39:26.738Z,10.68
2018-05-29T08:41:54.215Z,10.20
2018-05-29T08:44:22.843Z,10.35
2018-05-29T08:46:50.955Z,10.70
2018-05-29T08:49:18.464Z,10.85
2018-05-29T08:51:45.976Z,10.30
2018-05-29T08:56:48.298Z,10.30
2018-05-29T08:59:15.798Z,10.63
2018-05-29T09:01:43.302Z,10.75
2018-05-29T09:04:11.606Z,10.25
2018-05-29T09:06:39.854Z,10.05
2018-05-29T09:09:08.132Z,10.38
2018-05-29T09:11:36.396Z,9.85
2018-05-29T09:14:04.734Z,9.55
2018-05-29T09:16:32.241Z,10.20
2018-05-29T09:19:00.542Z,9.88
2018-05-29T09:21:28.036Z,9.35
2018-05-29T09:23:56.609Z,9.10
2018-05-29T09:26:24.111Z,8.90
2018-05-29T09:28:51.704Z,9.32
2018-05-29T09:31:19.205Z,8.93
2018-05-29T09:33:46.705Z,8.90
2018-05-29T09:36:14.974Z,8.65
2018-05-29T09:38:43.242Z,9.40
2018-05-29T09:41:10.752Z,8.40
2018-05-29T09:43:38.243Z,7.85
2018-05-29T09:46:05.755Z,7.55
2018-05-29T09:48:33.257Z,8.70
2018-05-29T09:51:00.783Z,8.45
2018-05-29T09:53:28.386Z,7.97
2018-05-29T09:55:55.919Z,7.25
2018-05-29T09:58:23.419Z,7.75
2018-05-29T10:00:57.521Z,6.68
2018-05-29T10:03:25.102Z,6.95
2018-05-29T10:05:53.376Z,7.20
2018-05-29T10:08:21.674Z,7.05
2018-05-29T10:10:50.006Z,7.07
2018-05-29T10:13:17.547Z,6.62
2018-05-29T10:15:45.065Z,6.65
2018-05-29T10:18:13.335Z,6.12
2018-05-29T10:20:42.263Z,6.53
2018-05-29T10:23:09.853Z,6.62
2018-05-29T10:25:37.346Z,7.00
2018-05-29T10:28:05.628Z,7.12
2018-05-29T10:30:33.901Z,7.72
2018-05-29T10:33:02.222Z,6.40
2018-05-29T10:35:29.718Z,6.12
2018-05-29T10:37:58.144Z,6.07
2018-05-29T10:40:25.710Z,6.35
2018-05-29T10:42:53.362Z,5.95
2018-05-29T10:45:21.464Z,5.62
2018-05-29T10:47:49.005Z,5.57
2018-05-29T10:50:16.547Z,5.22
2018-05-29T10:52:44.054Z,4.85
2018-05-29T10:55:12.122Z,5.12
2018-05-29T10:57:39.874Z,4.45
2018-05-29T11:00:07.397Z,4.40
2018-05-29T11:02:34.893Z,4.43
2018-05-29T11:05:02.406Z,5.93
2018-05-29T11:07:30.091Z,5.03
2018-05-29T11:09:57.597Z,4.43
2018-05-29T11:12:25.117Z,4.82
2018-05-29T11:14:52.689Z,5.90
2018-05-29T11:17:20.243Z,6.18
2018-05-29T11:19:48.229Z,4.55
2018-05-29T11:22:15.744Z,4.40
2018-05-29T11:24:43.326Z,4.72
2018-05-29T11:27:11.881Z,4.62
2018-05-29T11:29:44.290Z,5.22
2018-05-29T11:32:11.847Z,4.70
2018-05-29T11:34:39.348Z,4.85
2018-05-29T11:37:06.884Z,4.85
2018-05-29T11:39:34.402Z,5.30
2018-05-29T11:42:01.906Z,4.78
2018-05-29T11:44:30.293Z,4.90
2018-05-29T11:46:57.832Z,4.32
2018-05-29T11:49:25.348Z,4.95
2018-05-29T11:51:52.871Z,4.80
2018-05-29T11:54:20.388Z,5.20
2018-05-29T11:56:47.913Z,5.40
2018-05-29T11:59:15.449Z,4.50
2018-05-29T12:01:43.045Z,4.55
2018-05-29T12:04:11.387Z,4.55
2018-05-29T12:06:38.895Z,4.45
2018-05-29T12:09:06.388Z,4.90
2018-05-29T12:11:34.741Z,4.80
2018-05-29T12:14:02.241Z,4.57
2018-05-29T12:16:29.837Z,4.80
2018-05-29T12:18:57.329Z,4.30
2018-05-29T12:21:25.155Z,5.20
2018-05-29T12:24:03.995Z,4.28
2018-05-29T12:26:32.532Z,4.30
2018-05-29T12:29:01.202Z,4.32
2018-05-29T12:31:32.926Z,3.87
2018-05-29T12:34:00.439Z,4.65
2018-05-29T12:36:32.189Z,4.10
2018-05-29T12:39:00.619Z,4.30
2018-05-29T12:41:28.142Z,4.03
2018-05-29T12:43:56.112Z,3.80
2018-05-29T12:46:24.712Z,4.53
2018-05-29T12:48:52.223Z,4.05
2018-05-29T12:51:19.745Z,4.30
2018-05-29T12:53:48.368Z,4.28
2018-05-29T12:56:19.725Z,4.03
2018-05-29T12:58:51.364Z,4.00
2018-05-29T13:01:18.898Z,3.83
2018-05-29T13:03:48.014Z,4.22
2018-05-29T13:06:16.499Z,4.25
2018-05-29T13:08:44.002Z,4.15
2018-05-29T13:11:11.546Z,4.30
2018-05-29T13:13:39.071Z,4.30
2018-05-29T13:16:07.021Z,4.12
2018-05-29T13:18:36.022Z,4.40
2018-05-29T13:21:03.561Z,4.22
2018-05-29T13:23:31.857Z,4.20
2018-05-29T13:25:59.393Z,4.12
2018-05-29T13:28:27.725Z,4.20
2018-05-29T13:30:55.314Z,4.22
2018-05-29T13:33:23.189Z,4.07
2018-05-29T13:35:50.744Z,4.40
2018-05-29T13:38:18.320Z,4.47
2018-05-29T13:40:45.965Z,4.87
2018-05-29T13:43:13.482Z,4.20
2018-05-29T13:45:42.205Z,4.82
2018-05-29T13:48:09.724Z,4.50
2018-05-29T13:50:37.269Z,5.12
2018-05-29T13:53:04.869Z,5.00
2018-05-29T13:55:32.364Z,4.90
2018-05-29T13:58:01.081Z,4.60
2018-05-29T14:13:28.642Z,4.93
2018-05-29T14:15:56.169Z,4.82
2018-05-29T14:18:26.077Z,5.22
2018-05-29T14:20:54.373Z,4.80
2018-05-29T14:23:21.886Z,5.18
2018-05-29T14:25:49.397Z,5.07
2018-05-29T14:28:16.897Z,5.15
2018-05-29T14:30:44.605Z,5.78
2018-05-29T14:33:12.882Z,5.70
2018-05-29T14:35:41.172Z,4.87
2018-05-29T14:38:08.681Z,5.30
2018-05-29T14:40:40.153Z,5.35
2018-05-29T14:43:07.666Z,5.32
2018-05-29T14:58:40.293Z,7.30
2018-05-29T15:01:08.628Z,5.75
2018-05-29T15:03:36.151Z,5.32
2018-05-29T15:06:04.070Z,5.62
2018-05-29T15:08:31.655Z,5.60
2018-05-29T15:10:59.940Z,5.62
2018-05-29T15:13:27.883Z,5.50
2018-05-29T15:15:55.405Z,5.95
2018-05-29T15:18:22.915Z,5.78
2018-05-29T15:20:55.345Z,5.95
2018-05-29T15:23:22.905Z,6.12
2018-05-29T15:25:50.426Z,22.35
2018-05-29T15:28:18.703Z,6.53
2018-05-29T15:30:47.011Z,5.82
2018-05-29T15:33:14.548Z,6.57
2018-05-29T15:35:42.053Z,5.50
2018-05-29T15:38:09.586Z,6.20
2018-05-29T15:40:37.087Z,6.50
2018-05-29T15:43:05.557Z,6.25
2018-05-29T15:45:33.394Z,5.95
2018-05-29T15:48:00.909Z,6.12
2018-05-29T15:50:33.290Z,5.95
2018-05-29T15:53:05.705Z,6.20
2018-05-29T15:55:33.565Z,6.30
2018-05-29T15:58:01.952Z,6.25
2018-05-29T16:00:29.974Z,6.55
2018-05-29T16:02:58.277Z,6.80
2018-05-29T16:05:25.844Z,5.93
2018-05-29T16:07:53.340Z,6.28
2018-05-29T16:10:21.533Z,7.30
2018-05-29T16:12:49.049Z,7.35
2018-05-29T16:15:16.579Z,7.70
2018-05-29T16:17:44.841Z,7.30
2018-05-29T16:20:13.113Z,7.12
2018-05-29T16:22:41.741Z,8.65
2018-05-29T16:25:10.566Z,8.25
2018-05-29T16:27:40.405Z,11.50
2018-05-29T16:30:08.766Z,8.35
2018-05-29T16:45:37.281Z,8.50
2018-05-29T16:48:04.788Z,8.98
2018-05-29T16:50:32.318Z,8.98
2018-05-29T16:52:59.853Z,9.57
2018-05-29T16:55:27.408Z,9.20
2018-05-29T16:57:54.948Z,9.38
2018-05-29T17:00:22.481Z,9.13
2018-05-29T17:02:50.197Z,8.80
2018-05-29T17:05:22.559Z,8.75
2018-05-29T17:07:50.089Z,8.95
2018-05-29T17:23:17.678Z,9.48
2018-05-29T17:25:47.064Z,10.68
2018-05-29T17:28:16.967Z,20.98
2018-05-29T17:30:44.756Z,9.80
2018-05-29T17:33:13.950Z,9.25
2018-05-29T17:35:42.249Z,8.50
2018-05-29T17:38:09.776Z,9.73
2018-05-29T17:40:38.050Z,9.15
2018-05-29T17:43:06.836Z,9.38
2018-05-29T17:45:35.113Z,9.00
2018-05-29T17:48:07.374Z,9.77
2018-05-29T17:50:34.959Z,9.57
2018-05-29T18:02:47.512Z,10.32
2018-05-29T18:05:15.022Z,12.18
2018-05-29T18:07:42.747Z,10.23
2018-05-29T18:10:11.017Z,10.02
2018-05-29T18:12:38.526Z,10.23
2018-05-29T18:15:06.075Z,10.63
2018-05-29T18:17:33.890Z,10.63
2018-05-29T18:20:01.428Z,9.95
2018-05-29T18:22:28.932Z,10.23
2018-05-29T18:24:57.269Z,9.85
2018-05-29T18:27:24.807Z,10.18
2018-05-29T18:29:52.343Z,10.07
2018-05-29T18:32:19.857Z,10.02
2018-05-29T18:34:47.398Z,10.43
2018-05-29T18:37:15.857Z,10.13
2018-05-29T18:39:43.410Z,10.25
2018-05-29T18:42:10.931Z,10.85
2018-05-29T18:44:40.032Z,10.60
2018-05-29T18:47:09.085Z,19.33
2018-05-29T18:49:37.045Z,10.95
2018-05-29T18:52:05.318Z,10.70
2018-05-29T18:54:32.857Z,11.95
2018-05-29T18:57:00.410Z,11.63
2018-05-29T18:59:32.723Z,12.52
2018-05-29T19:02:01.125Z,11.40
2018-05-29T19:04:32.986Z,13.10
2018-05-29T19:07:00.545Z,13.02
2018-05-29T19:09:28.088Z,11.98
2018-05-29T19:11:55.624Z,12.23
2018-05-29T19:14:24.427Z,12.00
2018-05-29T19:16:56.525Z,12.63
2018-05-29T19:19:24.066Z,13.15
2018-05-29T19:21:52.129Z,12.45
2018-05-29T19:24:19.650Z,12.65
2018-05-29T19:26:48.780Z,13.20
2018-05-29T19:29:16.356Z,12.60
2018-05-29T19:31:43.898Z,13.50
2018-05-29T19:47:15.428Z,12.32
2018-05-29T19:49:43.002Z,11.75
2018-05-29T19:52:10.517Z,12.13
2018-05-29T19:54:38.818Z,12.13
2018-05-29T19:57:06.407Z,11.32
2018-05-29T19:59:34.963Z,11.12
2018-05-29T20:02:02.534Z,9.98
2018-05-29T20:04:34.443Z,8.07
2018-05-29T20:07:01.997Z,6.93
2018-05-29T20:09:34.400Z,6.00
2018-05-29T20:12:02.677Z,6.50
2018-05-29T20:14:31.734Z,6.82
2018-05-29T20:16:59.247Z,8.23
2018-05-29T20:19:27.336Z,11.07
2018-05-29T20:24:26.357Z,6.43
2018-05-29T20:26:58.238Z,6.40
2018-05-29T20:29:25.771Z,6.60
2018-05-29T20:31:54.364Z,6.20
2018-05-29T20:34:21.909Z,5.93
2018-05-29T20:36:50.181Z,6.22
2018-05-29T20:39:17.689Z,6.30
2018-05-29T20:41:45.446Z,6.28
2018-05-29T20:44:12.977Z,6.53
2018-05-29T20:46:40.538Z,6.87
2018-05-29T20:49:08.124Z,6.82
2018-05-29T20:51:35.625Z,7.80
2018-05-29T20:54:03.205Z,7.07
2018-05-29T20:56:31.052Z,6.70
2018-05-29T20:58:59.329Z,7.80
2018-05-29T21:01:27.629Z,9.68
2018-05-29T21:03:59.246Z,8.65
2018-05-29T21:06:28.426Z,6.90
2018-05-29T21:08:56.529Z,7.22
2018-05-29T21:11:27.970Z,6.70
2018-05-29T21:13:56.297Z,8.93
2018-05-29T21:16:23.875Z,13.40
2018-05-29T21:18:51.445Z,14.07
2018-05-29T21:21:20.898Z,11.88
2018-05-29T21:23:48.903Z,11.55
2018-05-29T21:36:01.456Z,11.30
2018-05-29T21:38:28.973Z,12.15
2018-05-29T21:41:01.594Z,12.18
2018-05-29T21:43:29.153Z,9.38
2018-05-29T21:45:56.666Z,8.98
2018-05-29T21:48:24.177Z,8.90
2018-05-29T21:50:51.673Z,10.35
2018-05-29T21:53:19.464Z,10.77
2018-05-29T21:55:47.758Z,10.07
2018-05-29T21:58:15.318Z,10.70
2018-05-29T22:00:42.855Z,11.43
2018-05-29T22:03:15.117Z,12.25
2018-05-29T22:05:42.980Z,13.77
2018-05-29T22:08:20.529Z,13.57
2018-05-29T22:10:48.806Z,13.50
2018-05-29T22:13:16.327Z,13.40
2018-05-29T22:15:44.610Z,13.80
2018-05-29T22:18:12.902Z,15.48
2018-05-29T22:20:40.424Z,12.60
2018-05-29T22:23:08.129Z,12.40
2018-05-29T22:25:39.385Z,9.43
2018-05-29T22:28:06.878Z,8.55
2018-05-29T22:30:34.610Z,9.30
2018-05-29T22:33:03.089Z,8.32
2018-05-29T22:35:30.586Z,6.90
2018-05-29T22:37:58.098Z,6.30
2018-05-29T22:40:25.591Z,6.50
2018-05-29T22:42:53.230Z,5.93
2018-05-29T22:45:24.867Z,6.18
2018-05-29T22:47:52.386Z,6.87
2018-05-29T22:50:19.908Z,6.70
2018-05-29T22:52:51.353Z,7.05
2018-05-29T22:55:19.198Z,6.65
2018-05-29T22:57:47.085Z,7.22
2018-05-29T23:00:15.163Z,7.00
2018-05-29T23:02:42.652Z,7.47
2018-05-29T23:05:10.315Z,8.48
2018-05-29T23:07:37.805Z,7.43
2018-05-29T23:10:06.120Z,7.97
2018-05-29T23:12:33.644Z,8.00
2018-05-29T23:15:02.071Z,8.07
2018-05-29T23:34:15.457Z,7.87
2018-05-29T23:36:43.748Z,7.57
2018-05-29T23:39:11.338Z,9.00
2018-05-29T23:41:38.849Z,8.73
2018-05-29T23:44:11.537Z,9.80
2018-05-29T23:46:40.509Z,9.38
2018-05-29T23:49:08.022Z,8.73
2018-05-29T23:51:35.523Z,8.30
2018-05-29T23:54:03.158Z,8.32
2018-05-29T23:56:30.667Z,7.97
2018-05-29T23:58:58.942Z,7.40
